createdAt,value
2018-10-07T00:00:47.649Z,33.2
2018-10-07T00:01:49.188Z,32.7
2018-10-07T00:02:50.585Z,32.7
2018-10-07T00:03:52.126Z,32.7
2018-10-07T00:04:53.670Z,32.3
2018-10-07T00:05:55.082Z,33.2
2018-10-07T00:06:56.628Z,32.7
2018-10-07T00:07:58.010Z,32.7
2018-10-07T00:08:59.558Z,32.3
2018-10-07T00:10:01.114Z,31.8
2018-10-07T00:11:02.665Z,32.3
2018-10-07T00:12:04.204Z,32.3
2018-10-07T00:13:05.746Z,31.3
2018-10-07T00:14:07.288Z,31.3
2018-10-07T00:15:08.679Z,32.3
2018-10-07T00:16:10.228Z,31.8
2018-10-07T00:17:11.803Z,32.3
2018-10-07T00:18:13.185Z,32.3
2018-10-07T00:19:14.571Z,32.3
2018-10-07T00:20:15.949Z,32.3
2018-10-07T00:21:17.485Z,31.8
2018-10-07T00:22:19.027Z,31.8
2018-10-07T00:23:20.601Z,31.8
2018-10-07T00:24:22.138Z,30.8
2018-10-07T00:25:23.692Z,31.3
2018-10-07T00:26:25.235Z,31.3
2018-10-07T00:27:26.628Z,31.3
2018-10-07T00:28:28.173Z,31.3
2018-10-07T00:29:29.552Z,32.3
2018-10-07T00:30:30.930Z,31.3
2018-10-07T00:31:32.310Z,31.3
2018-10-07T00:32:33.849Z,31.3
2018-10-07T00:33:35.430Z,31.8
2018-10-07T00:34:36.985Z,31.3
2018-10-07T00:35:38.538Z,30.8
2018-10-07T00:36:40.148Z,30.8
2018-10-07T00:37:41.680Z,31.3
2018-10-07T00:38:43.235Z,30.8
2018-10-07T00:39:44.788Z,30.8
2018-10-07T00:40:46.165Z,30.8
2018-10-07T00:41:47.724Z,30.8
2018-10-07T00:42:49.268Z,30.8
2018-10-07T00:43:50.486Z,30.8
2018-10-07T00:44:52.029Z,31.3
2018-10-07T00:45:53.607Z,30.8
2018-10-07T00:46:55.566Z,30.8
2018-10-07T00:47:56.950Z,30.3
2018-10-07T00:48:58.340Z,30.3
2018-10-07T00:49:59.898Z,29.8
2018-10-07T00:51:01.271Z,30.3
2018-10-07T00:52:02.813Z,31.3
2018-10-07T00:53:04.353Z,30.3
2018-10-07T00:54:05.914Z,30.3
2018-10-07T00:55:07.451Z,29.8
2018-10-07T00:56:09.017Z,30.3
2018-10-07T00:57:10.580Z,30.3
2018-10-07T00:58:12.122Z,31.3
2018-10-07T00:59:13.492Z,29.3
2018-10-07T01:00:15.031Z,30.3
2018-10-07T01:01:16.251Z,30.3
2018-10-07T01:02:17.810Z,30.3
2018-10-07T01:03:19.410Z,30.3
2018-10-07T01:04:20.958Z,29.8
2018-10-07T01:05:22.513Z,29.8
2018-10-07T01:06:23.574Z,29.8
2018-10-07T01:07:24.963Z,29.8
2018-10-07T01:08:26.343Z,29.8
2018-10-07T01:09:27.907Z,29.8
2018-10-07T01:10:29.461Z,29.8
2018-10-07T01:11:30.838Z,30.3
2018-10-07T01:12:32.388Z,31.3
2018-10-07T01:13:33.941Z,30.8
2018-10-07T01:14:35.493Z,30.8
2018-10-07T01:15:36.890Z,29.8
2018-10-07T01:16:38.451Z,30.8
2018-10-07T01:17:39.991Z,29.8
2018-10-07T01:18:41.537Z,29.8
2018-10-07T01:19:42.930Z,29.8
2018-10-07T01:20:44.471Z,29.8
2018-10-07T01:21:45.839Z,29.8
2018-10-07T01:22:47.383Z,29.8
2018-10-07T01:23:48.922Z,29.8
2018-10-07T01:24:50.473Z,30.3
2018-10-07T01:25:51.853Z,29.3
2018-10-07T01:26:53.380Z,29.8
2018-10-07T01:27:54.935Z,29.8
2018-10-07T01:28:56.476Z,29.8
2018-10-07T01:29:57.698Z,30.3
2018-10-07T01:30:59.223Z,29.8
2018-10-07T01:32:00.819Z,30.3
2018-10-07T01:33:02.206Z,29.8
2018-10-07T01:34:03.753Z,30.8
2018-10-07T01:35:04.980Z,30.3
2018-10-07T01:36:06.549Z,30.3
2018-10-07T01:37:08.108Z,31.3
2018-10-07T01:38:09.478Z,30.8
2018-10-07T01:39:11.055Z,30.8
2018-10-07T01:40:12.599Z,31.8
2018-10-07T01:41:13.993Z,31.8
2018-10-07T01:42:15.544Z,31.3
2018-10-07T01:43:16.920Z,31.8
2018-10-07T01:44:18.459Z,32.3
2018-10-07T01:45:20.006Z,31.8
2018-10-07T01:46:21.518Z,32.7
2018-10-07T01:47:23.060Z,32.3
2018-10-07T01:48:24.607Z,32.3
2018-10-07T01:49:25.999Z,32.3
2018-10-07T01:50:27.552Z,33.2
2018-10-07T01:51:29.083Z,32.7
2018-10-07T01:52:30.619Z,32.3
2018-10-07T01:53:32.164Z,32.7
2018-10-07T01:54:33.717Z,33.2
2018-10-07T01:55:35.117Z,32.7
2018-10-07T01:56:36.661Z,33.2
2018-10-07T01:57:38.210Z,32.7
2018-10-07T01:58:39.765Z,33.7
2018-10-07T01:59:41.131Z,32.3
2018-10-07T02:00:42.722Z,33.2
2018-10-07T02:01:44.111Z,33.2
2018-10-07T02:02:45.648Z,33.2
2018-10-07T02:03:47.192Z,32.7
2018-10-07T02:04:48.751Z,34.2
2018-10-07T02:05:50.134Z,33.2
2018-10-07T02:06:51.523Z,33.2
2018-10-07T02:07:52.881Z,33.7
2018-10-07T02:08:54.419Z,43
2018-10-07T02:09:55.968Z,48.4
2018-10-07T02:10:57.493Z,52.3
2018-10-07T02:11:59.051Z,53.8
2018-10-07T02:13:00.279Z,55.2
2018-10-07T02:14:02.415Z,55.2
2018-10-07T02:15:04.179Z,55.2
2018-10-07T02:16:05.728Z,55.2
2018-10-07T02:17:07.408Z,54.7
2018-10-07T02:18:08.997Z,54.3
2018-10-07T02:19:10.577Z,54.7
2018-10-07T02:20:12.139Z,54.7
2018-10-07T02:21:13.509Z,54.7
2018-10-07T02:22:15.053Z,55.2
2018-10-07T02:23:16.435Z,54.3
2018-10-07T02:24:17.814Z,54.3
2018-10-07T02:25:19.038Z,54.3
2018-10-07T02:26:20.572Z,54.3
2018-10-07T02:27:22.131Z,53.3
2018-10-07T02:28:23.679Z,52.8
2018-10-07T02:29:25.228Z,53.3
2018-10-07T02:30:26.863Z,53.3
2018-10-07T02:31:28.078Z,52.3
2018-10-07T02:32:29.469Z,53.3
2018-10-07T02:33:31.014Z,51.8
2018-10-07T02:34:32.590Z,51.3
2018-10-07T02:35:34.158Z,49.9
2018-10-07T02:36:35.703Z,49.4
2018-10-07T02:37:37.249Z,48.9
2018-10-07T02:38:38.803Z,47.9
2018-10-07T02:39:40.023Z,47.4
2018-10-07T02:40:41.411Z,45.5
2018-10-07T02:41:42.967Z,44.5
2018-10-07T02:42:44.561Z,43
2018-10-07T02:43:46.100Z,42
2018-10-07T02:44:47.628Z,41.1
2018-10-07T02:45:49.166Z,39.6
2018-10-07T02:46:50.733Z,39.1
2018-10-07T02:47:52.129Z,40.6
2018-10-07T02:48:53.528Z,41.5
2018-10-07T02:49:54.939Z,44
2018-10-07T02:50:56.494Z,44
2018-10-07T02:51:57.869Z,45
2018-10-07T02:52:59.407Z,44.5
2018-10-07T02:54:00.959Z,45.5
2018-10-07T02:55:02.522Z,45.5
2018-10-07T02:56:04.077Z,45
2018-10-07T02:57:05.462Z,45
2018-10-07T02:58:07.033Z,44
2018-10-07T02:59:08.593Z,44.5
2018-10-07T03:00:10.121Z,44
2018-10-07T03:01:11.361Z,43
2018-10-07T03:02:12.949Z,42.5
2018-10-07T03:03:14.491Z,42
2018-10-07T03:04:16.038Z,41.5
2018-10-07T03:05:17.282Z,40.6
2018-10-07T03:06:18.759Z,40.1
2018-10-07T03:07:20.363Z,39.6
2018-10-07T03:08:21.748Z,39.1
2018-10-07T03:09:22.976Z,38.6
2018-10-07T03:10:24.537Z,38.1
2018-10-07T03:11:26.070Z,37.6
2018-10-07T03:12:27.618Z,37.1
2018-10-07T03:13:29.009Z,37.6
2018-10-07T03:14:30.390Z,37.1
2018-10-07T03:15:31.777Z,37.1
2018-10-07T03:16:33.325Z,37.1
2018-10-07T03:17:34.879Z,36.7
2018-10-07T03:18:36.424Z,37.1
2018-10-07T03:19:38.029Z,36.7
2018-10-07T03:20:39.555Z,37.1
2018-10-07T03:21:41.121Z,36.2
2018-10-07T03:22:42.665Z,36.7
2018-10-07T03:23:44.218Z,36.7
2018-10-07T03:24:45.772Z,35.7
2018-10-07T03:25:47.313Z,36.2
2018-10-07T03:26:48.701Z,36.2
2018-10-07T03:27:50.237Z,35.7
2018-10-07T03:28:51.788Z,35.7
2018-10-07T03:29:53.342Z,35.7
2018-10-07T03:30:54.921Z,45
2018-10-07T03:31:56.484Z,52.3
2018-10-07T03:32:57.852Z,56.2
2018-10-07T03:33:59.404Z,59.1
2018-10-07T03:35:00.953Z,60.1
2018-10-07T03:36:02.519Z,59.6
2018-10-07T03:37:03.927Z,61.1
2018-10-07T03:38:05.476Z,60.6
2018-10-07T03:39:06.536Z,61.1
2018-10-07T03:40:08.094Z,60.1
2018-10-07T03:41:09.484Z,60.6
2018-10-07T03:42:11.020Z,60.1
2018-10-07T03:43:12.585Z,59.1
2018-10-07T03:44:14.139Z,59.1
2018-10-07T03:45:15.699Z,58.2
2018-10-07T03:46:17.249Z,57.7
2018-10-07T03:47:18.801Z,57.7
2018-10-07T03:48:20.174Z,57.2
2018-10-07T03:49:21.728Z,55.7
2018-10-07T03:50:23.274Z,56.2
2018-10-07T03:51:24.805Z,55.2
2018-10-07T03:52:26.361Z,55.2
2018-10-07T03:53:27.730Z,55.2
2018-10-07T03:54:29.270Z,53.3
2018-10-07T03:55:30.858Z,53.3
2018-10-07T03:56:32.413Z,50.8
2018-10-07T03:57:33.799Z,47.4
2018-10-07T03:58:35.364Z,45.5
2018-10-07T03:59:36.925Z,41.5
2018-10-07T04:00:38.468Z,40.6
2018-10-07T04:01:39.865Z,39.1
2018-10-07T04:02:41.409Z,39.1
2018-10-07T04:03:42.780Z,37.1
2018-10-07T04:04:44.149Z,37.6
2018-10-07T04:05:45.520Z,38.1
2018-10-07T04:06:47.087Z,37.1
2018-10-07T04:07:48.480Z,37.6
2018-10-07T04:08:50.053Z,37.1
2018-10-07T04:09:51.585Z,37.6
2018-10-07T04:10:52.635Z,37.1
2018-10-07T04:11:54.180Z,36.7
2018-10-07T04:12:55.554Z,36.2
2018-10-07T04:13:57.313Z,37.1
2018-10-07T04:14:58.852Z,36.7
2018-10-07T04:16:00.397Z,37.1
2018-10-07T04:17:01.950Z,36.7
2018-10-07T04:18:03.520Z,36.7
2018-10-07T04:19:05.080Z,37.1
2018-10-07T04:20:06.617Z,36.7
2018-10-07T04:21:08.192Z,36.7
2018-10-07T04:22:09.762Z,36.7
2018-10-07T04:23:11.297Z,35.7
2018-10-07T04:24:12.843Z,36.7
2018-10-07T04:25:14.214Z,35.7
2018-10-07T04:26:15.756Z,36.2
2018-10-07T04:27:17.305Z,37.1
2018-10-07T04:28:18.839Z,40.1
2018-10-07T04:29:20.391Z,41.5
2018-10-07T04:30:21.948Z,43.5
2018-10-07T04:31:23.496Z,44
2018-10-07T04:32:24.704Z,43.5
2018-10-07T04:33:26.249Z,44.5
2018-10-07T04:34:27.817Z,44
2018-10-07T04:35:29.390Z,44
2018-10-07T04:36:30.959Z,43.5
2018-10-07T04:37:32.324Z,43.5
2018-10-07T04:38:33.895Z,43.5
2018-10-07T04:39:35.461Z,42.5
2018-10-07T04:40:36.905Z,42
2018-10-07T04:41:38.452Z,41.1
2018-10-07T04:42:39.994Z,40.1
2018-10-07T04:43:41.544Z,38.1
2018-10-07T04:44:43.101Z,37.6
2018-10-07T04:45:44.485Z,36.7
2018-10-07T04:46:46.095Z,38.6
2018-10-07T04:47:47.661Z,40.6
2018-10-07T04:48:48.724Z,42.5
2018-10-07T04:49:50.097Z,43
2018-10-07T04:50:51.490Z,43.5
2018-10-07T04:51:52.899Z,45
2018-10-07T04:52:54.270Z,44.5
2018-10-07T04:53:55.684Z,44
2018-10-07T04:54:57.228Z,44
2018-10-07T04:55:58.768Z,42.5
2018-10-07T04:57:00.309Z,43
2018-10-07T04:58:01.765Z,42
2018-10-07T04:59:03.370Z,41.5
2018-10-07T05:00:05.270Z,40.1
2018-10-07T05:01:06.728Z,39.6
2018-10-07T05:02:08.270Z,39.1
2018-10-07T05:03:09.843Z,38.6
2018-10-07T05:04:11.219Z,37.6
2018-10-07T05:05:12.610Z,39.1
2018-10-07T05:06:14.158Z,41.5
2018-10-07T05:07:15.720Z,42.5
2018-10-07T05:08:17.284Z,44.5
2018-10-07T05:09:18.859Z,44.5
2018-10-07T05:10:20.421Z,44
2018-10-07T05:11:21.988Z,44.5
2018-10-07T05:12:23.800Z,44
2018-10-07T05:13:25.386Z,44.5
2018-10-07T05:14:26.779Z,44
2018-10-07T05:15:28.366Z,43.5
2018-10-07T05:16:29.776Z,43.5
2018-10-07T05:17:31.367Z,42.5
2018-10-07T05:18:32.974Z,43.5
2018-10-07T05:19:34.573Z,42
2018-10-07T05:20:36.163Z,42
2018-10-07T05:21:37.754Z,42
2018-10-07T05:22:39.170Z,42
2018-10-07T05:23:40.582Z,42.5
2018-10-07T05:24:42.145Z,41.5
2018-10-07T05:25:43.544Z,41.5
2018-10-07T05:26:45.108Z,40.6
2018-10-07T05:27:46.701Z,40.1
2018-10-07T05:28:48.268Z,41.1
2018-10-07T05:29:49.868Z,41.5
2018-10-07T05:30:51.444Z,41.1
2018-10-07T05:32:07.887Z,40.1
2018-10-07T05:33:09.766Z,40.6
2018-10-07T05:34:11.269Z,40.1
2018-10-07T05:35:12.810Z,40.6
2018-10-07T05:36:14.357Z,42
2018-10-07T05:37:15.748Z,44.5
2018-10-07T05:38:17.300Z,46.9
2018-10-07T05:39:18.934Z,49.4
2018-10-07T05:40:20.168Z,51.8
2018-10-07T05:41:21.732Z,52.8
2018-10-07T05:42:23.295Z,54.3
2018-10-07T05:43:25.048Z,57.2
2018-10-07T05:44:27.560Z,57.2
2018-10-07T05:45:29.148Z,58.7
2018-10-07T05:46:30.712Z,59.6
2018-10-07T05:47:32.242Z,59.1
2018-10-07T05:48:33.811Z,60.1
2018-10-07T05:49:35.363Z,59.6
2018-10-07T05:50:36.905Z,59.1
2018-10-07T05:51:38.632Z,59.1
2018-10-07T05:52:40.231Z,59.6
2018-10-07T05:53:41.800Z,59.6
2018-10-07T05:54:43.365Z,59.1
2018-10-07T05:55:45.486Z,59.1
2018-10-07T05:56:47.114Z,59.6
2018-10-07T05:57:48.676Z,59.1
2018-10-07T05:58:50.102Z,58.7
2018-10-07T05:59:51.653Z,58.7
2018-10-07T06:00:53.227Z,58.7
2018-10-07T06:01:55.748Z,58.7
2018-10-07T06:02:57.468Z,58.2
2018-10-07T06:03:58.871Z,57.7
2018-10-07T06:05:00.485Z,57.7
2018-10-07T06:06:02.038Z,57.7
2018-10-07T06:07:03.593Z,57.2
2018-10-07T06:08:05.141Z,57.2
2018-10-07T06:09:06.707Z,57.7
2018-10-07T06:10:08.259Z,56.7
2018-10-07T06:11:09.667Z,57.2
2018-10-07T06:12:11.217Z,57.2
2018-10-07T06:13:12.775Z,57.2
2018-10-07T06:14:14.321Z,56.2
2018-10-07T06:15:15.729Z,55.7
2018-10-07T06:16:17.141Z,56.2
2018-10-07T06:17:18.724Z,56.2
2018-10-07T06:18:20.309Z,56.2
2018-10-07T06:19:21.707Z,56.2
2018-10-07T06:20:23.271Z,56.2
2018-10-07T06:21:25.112Z,55.7
2018-10-07T06:22:26.526Z,55.2
2018-10-07T06:23:28.093Z,55.7
2018-10-07T06:24:29.492Z,55.7
2018-10-07T06:25:31.073Z,54.7
2018-10-07T06:26:32.748Z,55.2
2018-10-07T06:27:34.383Z,53.8
2018-10-07T06:28:35.612Z,54.7
2018-10-07T06:29:37.332Z,54.7
2018-10-07T06:30:38.618Z,54.3
2018-10-07T06:31:40.167Z,53.8
2018-10-07T06:32:41.745Z,53.8
2018-10-07T06:33:43.363Z,53.8
2018-10-07T06:34:44.763Z,53.8
2018-10-07T06:35:46.300Z,54.3
2018-10-07T06:36:47.877Z,54.3
2018-10-07T06:37:49.436Z,54.7
2018-10-07T06:38:51.673Z,53.3
2018-10-07T06:39:53.542Z,53.8
2018-10-07T06:40:55.253Z,53.8
2018-10-07T06:41:56.671Z,53.8
2018-10-07T06:42:58.219Z,52.8
2018-10-07T06:43:59.770Z,53.8
2018-10-07T06:45:01.171Z,53.3
2018-10-07T06:46:02.416Z,53.3
2018-10-07T06:47:03.996Z,52.8
2018-10-07T06:48:05.549Z,53.3
2018-10-07T06:49:07.110Z,53.3
2018-10-07T06:50:08.667Z,53.3
2018-10-07T06:51:10.228Z,53.3
2018-10-07T06:52:11.610Z,52.8
2018-10-07T06:53:13.000Z,52.8
2018-10-07T06:54:14.620Z,52.8
2018-10-07T06:55:16.173Z,51.8
2018-10-07T06:56:17.573Z,51.8
2018-10-07T06:57:19.115Z,52.8
2018-10-07T06:58:20.686Z,51.8
2018-10-07T06:59:22.232Z,52.3
2018-10-07T07:00:23.815Z,51.3
2018-10-07T07:01:25.376Z,50.8
2018-10-07T07:02:26.778Z,49.9
2018-10-07T07:03:28.339Z,49.4
2018-10-07T07:04:29.903Z,49.4
2018-10-07T07:05:31.449Z,48.9
2018-10-07T07:06:33.825Z,49.4
2018-10-07T07:07:35.586Z,47.9
2018-10-07T07:08:37.139Z,48.9
2018-10-07T07:09:38.682Z,47.9
2018-10-07T07:10:40.252Z,47.9
2018-10-07T07:11:41.653Z,47.9
2018-10-07T07:12:43.211Z,47.4
2018-10-07T07:13:44.463Z,47.4
2018-10-07T07:14:45.847Z,46.4
2018-10-07T07:15:47.239Z,45.9
2018-10-07T07:16:48.814Z,46.4
2018-10-07T07:17:50.045Z,45.9
2018-10-07T07:18:51.601Z,45.9
2018-10-07T07:19:53.735Z,45.9
2018-10-07T07:20:55.581Z,45.5
2018-10-07T07:21:56.829Z,45.5
2018-10-07T07:22:58.423Z,44
2018-10-07T07:24:00.001Z,45.5
2018-10-07T07:25:01.432Z,44
2018-10-07T07:26:02.990Z,44.5
2018-10-07T07:27:04.375Z,45
2018-10-07T07:28:05.953Z,46.4
2018-10-07T07:29:07.497Z,47.9
2018-10-07T07:30:08.884Z,48.4
2018-10-07T07:31:10.469Z,50.8
2018-10-07T07:32:12.031Z,51.8
2018-10-07T07:33:13.581Z,53.3
2018-10-07T07:34:15.149Z,54.7
2018-10-07T07:35:16.545Z,55.2
2018-10-07T07:36:18.109Z,56.2
2018-10-07T07:37:19.679Z,56.2
2018-10-07T07:38:21.091Z,57.2
2018-10-07T07:39:22.680Z,57.2
2018-10-07T07:40:24.079Z,58.2
2018-10-07T07:41:25.650Z,58.7
2018-10-07T07:42:27.683Z,58.2
2018-10-07T07:43:29.288Z,57.7
2018-10-07T07:44:30.863Z,58.2
2018-10-07T07:45:32.423Z,58.2
2018-10-07T07:46:34.011Z,59.1
2018-10-07T07:47:35.580Z,58.7
2018-10-07T07:48:36.631Z,57.2
2018-10-07T07:49:38.192Z,57.7
2018-10-07T07:50:39.640Z,57.7
2018-10-07T07:51:41.036Z,57.7
2018-10-07T07:52:42.413Z,57.7
2018-10-07T07:53:43.993Z,57.2
2018-10-07T07:54:45.393Z,57.2
2018-10-07T07:55:46.961Z,56.7
2018-10-07T07:56:48.370Z,56.7
2018-10-07T07:57:49.610Z,56.7
2018-10-07T07:58:51.016Z,56.7
2018-10-07T07:59:52.570Z,55.7
2018-10-07T08:00:54.124Z,55.2
2018-10-07T08:01:55.522Z,56.2
2018-10-07T08:02:57.081Z,56.2
2018-10-07T08:03:58.644Z,56.7
2018-10-07T08:05:00.034Z,56.2
2018-10-07T08:06:01.450Z,56.2
2018-10-07T08:07:03.013Z,56.2
2018-10-07T08:08:04.584Z,56.2
2018-10-07T08:09:05.671Z,55.7
2018-10-07T08:10:07.239Z,56.2
2018-10-07T08:11:08.802Z,56.2
2018-10-07T08:12:10.374Z,54.7
2018-10-07T08:13:11.959Z,55.2
2018-10-07T08:14:13.508Z,55.2
2018-10-07T08:15:15.060Z,54.7
2018-10-07T08:16:16.473Z,54.7
2018-10-07T08:17:18.289Z,53.8
2018-10-07T08:18:19.722Z,54.3
2018-10-07T08:19:21.298Z,55.2
2018-10-07T08:20:22.876Z,54.7
2018-10-07T08:21:24.287Z,53.8
2018-10-07T08:22:25.863Z,53.3
2018-10-07T08:23:27.356Z,54.3
2018-10-07T08:24:28.679Z,53.8
2018-10-07T08:25:30.255Z,52.8
2018-10-07T08:26:31.835Z,52.3
2018-10-07T08:27:33.264Z,53.3
2018-10-07T08:28:34.850Z,52.8
2018-10-07T08:29:36.031Z,53.3
2018-10-07T08:30:37.716Z,52.8
2018-10-07T08:31:39.323Z,52.3
2018-10-07T08:32:40.746Z,52.3
2018-10-07T08:33:42.140Z,51.8
2018-10-07T08:34:43.519Z,51.8
2018-10-07T08:35:45.097Z,52.3
2018-10-07T08:36:46.662Z,52.3
2018-10-07T08:37:48.261Z,51.8
2018-10-07T08:38:49.827Z,52.3
2018-10-07T08:39:51.626Z,52.3
2018-10-07T08:40:53.026Z,52.3
2018-10-07T08:41:54.592Z,51.8
2018-10-07T08:42:56.188Z,51.3
2018-10-07T08:43:57.590Z,51.8
2018-10-07T08:44:59.169Z,51.8
2018-10-07T08:46:00.728Z,51.3
2018-10-07T08:47:02.280Z,50.8
2018-10-07T08:48:03.842Z,50.8
2018-10-07T08:49:05.400Z,51.3
2018-10-07T08:50:06.778Z,51.3
2018-10-07T08:51:08.162Z,51.3
2018-10-07T08:52:09.724Z,50.8
2018-10-07T08:53:10.965Z,49.9
2018-10-07T08:54:12.526Z,49.9
2018-10-07T08:55:13.749Z,50.3
2018-10-07T08:56:15.812Z,49.4
2018-10-07T08:57:17.094Z,48.9
2018-10-07T08:58:18.650Z,47.9
2018-10-07T08:59:20.203Z,48.4
2018-10-07T09:00:21.590Z,47.9
2018-10-07T09:01:23.168Z,48.4
2018-10-07T09:02:24.747Z,47.4
2018-10-07T09:03:26.337Z,47.9
2018-10-07T09:04:27.899Z,46.9
2018-10-07T09:05:29.469Z,47.4
2018-10-07T09:06:31.046Z,46.9
2018-10-07T09:07:32.742Z,46.9
2018-10-07T09:08:34.362Z,46.4
2018-10-07T09:09:35.932Z,45.5
2018-10-07T09:10:37.479Z,46.9
2018-10-07T09:11:39.044Z,46.4
2018-10-07T09:12:40.617Z,46.4
2018-10-07T09:13:42.206Z,45.5
2018-10-07T09:14:44.293Z,45.9
2018-10-07T09:15:45.629Z,46.9
2018-10-07T09:16:47.227Z,47.9
2018-10-07T09:17:48.819Z,47.9
2018-10-07T09:18:50.395Z,48.9
2018-10-07T09:19:51.624Z,49.4
2018-10-07T09:20:53.246Z,49.9
2018-10-07T09:21:54.658Z,49.9
2018-10-07T09:22:56.064Z,50.3
2018-10-07T09:23:57.649Z,50.8
2018-10-07T09:24:59.224Z,51.3
2018-10-07T09:26:00.790Z,51.3
2018-10-07T09:28:19.288Z,52.3
2018-10-07T09:29:20.695Z,52.3
2018-10-07T09:30:22.264Z,52.8
2018-10-07T09:31:23.844Z,53.3
2018-10-07T09:32:25.943Z,52.8
2018-10-07T09:33:27.700Z,54.3
2018-10-07T09:34:29.257Z,54.3
2018-10-07T09:35:30.674Z,55.2
2018-10-07T09:36:32.286Z,56.2
2018-10-07T09:37:34.030Z,56.2
2018-10-07T09:38:35.471Z,56.2
2018-10-07T09:39:37.291Z,56.2
2018-10-07T09:40:38.874Z,56.7
2018-10-07T09:41:40.408Z,55.7
2018-10-07T09:42:41.985Z,56.2
2018-10-07T09:43:43.590Z,56.2
2018-10-07T09:44:45.159Z,56.2
2018-10-07T09:45:46.570Z,56.7
2018-10-07T09:46:48.138Z,55.7
2018-10-07T09:47:49.385Z,56.2
2018-10-07T09:48:50.956Z,55.7
2018-10-07T09:49:52.511Z,56.2
2018-10-07T09:50:54.084Z,56.2
2018-10-07T09:51:55.650Z,56.2
2018-10-07T09:52:57.042Z,55.2
2018-10-07T09:53:58.615Z,56.2
2018-10-07T09:55:00.017Z,55.2
2018-10-07T09:56:01.420Z,54.7
2018-10-07T09:57:02.999Z,54.7
2018-10-07T09:58:05.021Z,55.2
2018-10-07T09:59:06.790Z,55.7
2018-10-07T10:00:08.411Z,54.7
2018-10-07T10:01:10.293Z,54.7
2018-10-07T10:02:11.783Z,54.3
2018-10-07T10:03:13.172Z,54.7
2018-10-07T10:04:15.604Z,55.2
2018-10-07T10:05:17.406Z,54.7
2018-10-07T10:06:19.043Z,53.8
2018-10-07T10:07:20.612Z,54.3
2018-10-07T10:08:22.224Z,54.3
2018-10-07T10:09:23.801Z,54.3
2018-10-07T10:10:25.371Z,52.8
2018-10-07T10:11:27.300Z,52.8
2018-10-07T10:12:28.856Z,53.8
2018-10-07T10:13:30.416Z,54.3
2018-10-07T10:14:32.002Z,53.3
2018-10-07T10:15:33.590Z,52.8
2018-10-07T10:16:35.276Z,53.3
2018-10-07T10:17:37.387Z,52.8
2018-10-07T10:18:39.197Z,52.8
2018-10-07T10:19:41.069Z,53.8
2018-10-07T10:20:42.710Z,52.3
2018-10-07T10:21:44.293Z,52.3
2018-10-07T10:22:45.851Z,53.8
2018-10-07T10:23:47.451Z,52.8
2018-10-07T10:24:49.054Z,53.3
2018-10-07T10:25:50.454Z,51.8
2018-10-07T10:26:52.012Z,52.3
2018-10-07T10:27:53.560Z,52.3
2018-10-07T10:28:55.118Z,51.8
2018-10-07T10:29:56.680Z,52.3
2018-10-07T10:30:58.074Z,52.8
2018-10-07T10:31:59.636Z,51.8
2018-10-07T10:33:01.220Z,52.3
2018-10-07T10:34:02.652Z,51.8
2018-10-07T10:35:04.302Z,51.3
2018-10-07T10:36:05.883Z,50.8
2018-10-07T10:37:07.288Z,50.3
2018-10-07T10:38:08.710Z,50.3
2018-10-07T10:39:10.190Z,50.3
2018-10-07T10:40:11.951Z,50.3
2018-10-07T10:41:13.529Z,49.4
2018-10-07T10:42:15.106Z,49.4
2018-10-07T10:43:16.670Z,48.9
2018-10-07T10:44:18.249Z,48.4
2018-10-07T10:45:19.916Z,48.9
2018-10-07T10:46:21.639Z,47.9
2018-10-07T10:47:23.217Z,47.4
2018-10-07T10:48:24.778Z,47.4
2018-10-07T10:49:26.364Z,47.4
2018-10-07T10:50:27.792Z,47.4
2018-10-07T10:51:29.386Z,47.4
2018-10-07T10:52:30.803Z,47.4
2018-10-07T10:53:32.394Z,47.4
2018-10-07T10:54:33.964Z,47.4
2018-10-07T10:55:35.366Z,47.9
2018-10-07T10:56:36.930Z,47.4
2018-10-07T10:57:38.499Z,47.9
2018-10-07T10:58:40.075Z,49.4
2018-10-07T10:59:41.638Z,49.4
2018-10-07T11:00:43.093Z,49.4
2018-10-07T11:01:44.501Z,50.8
2018-10-07T11:02:46.086Z,51.8
2018-10-07T11:03:47.650Z,51.8
2018-10-07T11:04:49.218Z,52.8
2018-10-07T11:05:50.779Z,52.8
2018-10-07T11:06:52.370Z,52.8
2018-10-07T11:07:53.960Z,54.3
2018-10-07T11:08:55.529Z,53.8
2018-10-07T11:09:56.910Z,54.3
2018-10-07T11:10:58.484Z,55.7
2018-10-07T11:11:59.892Z,56.2
2018-10-07T11:13:01.466Z,55.7
2018-10-07T11:14:02.868Z,57.2
2018-10-07T11:15:04.273Z,57.2
2018-10-07T11:16:05.687Z,57.7
2018-10-07T11:17:07.267Z,57.2
2018-10-07T11:18:08.831Z,56.7
2018-10-07T11:19:10.383Z,57.7
2018-10-07T11:20:11.781Z,57.2
2018-10-07T11:21:13.215Z,57.2
2018-10-07T11:22:14.794Z,57.2
2018-10-07T11:23:16.357Z,57.2
2018-10-07T11:24:17.594Z,56.7
2018-10-07T11:25:19.202Z,57.7
2018-10-07T11:26:21.033Z,58.2
2018-10-07T11:27:22.613Z,56.7
2018-10-07T11:28:24.191Z,56.7
2018-10-07T11:29:25.784Z,57.2
2018-10-07T11:30:27.180Z,56.7
2018-10-07T11:31:28.575Z,56.7
2018-10-07T11:32:30.153Z,57.2
2018-10-07T11:33:31.519Z,56.7
2018-10-07T11:34:33.087Z,57.2
2018-10-07T11:35:34.634Z,56.7
2018-10-07T11:36:36.306Z,57.2
2018-10-07T11:37:37.879Z,57.7
2018-10-07T11:38:39.470Z,57.2
2018-10-07T11:39:40.711Z,57.7
2018-10-07T11:40:42.449Z,57.2
2018-10-07T11:41:44.104Z,56.7
2018-10-07T11:42:45.489Z,56.2
2018-10-07T11:43:46.891Z,56.2
2018-10-07T11:44:48.287Z,56.7
2018-10-07T11:45:49.841Z,56.7
2018-10-07T11:46:51.468Z,55.2
2018-10-07T11:47:52.915Z,55.7
2018-10-07T11:48:54.479Z,56.2
2018-10-07T11:49:56.039Z,55.7
2018-10-07T11:50:57.447Z,54.7
2018-10-07T11:51:58.840Z,55.7
2018-10-07T11:53:00.727Z,55.2
2018-10-07T11:54:02.308Z,54.7
2018-10-07T11:55:03.873Z,55.7
2018-10-07T11:56:05.298Z,54.7
2018-10-07T11:57:06.692Z,54.7
2018-10-07T11:58:08.083Z,53.8
2018-10-07T11:59:09.656Z,53.8
2018-10-07T12:00:11.048Z,53.3
2018-10-07T12:01:12.633Z,52.8
2018-10-07T12:02:14.508Z,52.3
2018-10-07T12:03:16.208Z,52.3
2018-10-07T12:04:17.612Z,51.8
2018-10-07T12:05:19.167Z,51.3
2018-10-07T12:06:20.757Z,51.8
2018-10-07T12:07:22.326Z,50.8
2018-10-07T12:08:23.883Z,49.9
2018-10-07T12:09:39.803Z,50.3
2018-10-07T12:10:41.209Z,49.9
2018-10-07T12:11:42.769Z,49.4
2018-10-07T12:12:44.327Z,49.4
2018-10-07T12:13:45.900Z,49.9
2018-10-07T12:14:47.477Z,49.9
2018-10-07T12:15:49.085Z,48.4
2018-10-07T12:16:50.469Z,48.4
2018-10-07T12:17:51.891Z,48.4
2018-10-07T12:18:53.459Z,47.4
2018-10-07T12:19:55.030Z,47.9
2018-10-07T12:20:56.410Z,47.9
2018-10-07T12:21:57.993Z,47.4
2018-10-07T12:22:59.552Z,47.9
2018-10-07T12:24:00.944Z,46.4
2018-10-07T12:25:02.519Z,46.9
2018-10-07T12:26:03.923Z,46.4
2018-10-07T12:27:05.309Z,45.5
2018-10-07T12:28:06.740Z,45.9
2018-10-07T12:29:09.059Z,45.9
2018-10-07T12:30:10.486Z,45.9
2018-10-07T12:31:12.047Z,46.4
2018-10-07T12:32:13.613Z,46.9
2018-10-07T12:33:15.194Z,47.9
2018-10-07T12:34:16.750Z,47.9
2018-10-07T12:35:18.313Z,48.4
2018-10-07T12:36:19.892Z,48.9
2018-10-07T12:37:21.467Z,49.4
2018-10-07T12:38:23.021Z,49.9
2018-10-07T12:39:24.450Z,51.3
2018-10-07T12:40:26.023Z,51.8
2018-10-07T12:41:27.598Z,52.3
2018-10-07T12:42:29.248Z,52.3
2018-10-07T12:43:30.641Z,53.3
2018-10-07T12:44:31.863Z,53.8
2018-10-07T12:45:33.272Z,53.8
2018-10-07T12:46:34.700Z,54.3
2018-10-07T12:47:36.087Z,55.2
2018-10-07T12:48:37.670Z,55.2
2018-10-07T12:49:39.224Z,55.7
2018-10-07T12:50:40.791Z,56.2
2018-10-07T12:51:42.374Z,56.2
2018-10-07T12:52:43.779Z,56.7
2018-10-07T12:53:45.355Z,56.2
2018-10-07T12:54:46.747Z,56.2
2018-10-07T12:55:48.319Z,56.2
2018-10-07T12:56:49.723Z,56.2
2018-10-07T12:57:51.293Z,57.2
2018-10-07T12:58:52.878Z,56.7
2018-10-07T12:59:54.479Z,56.7
2018-10-07T13:00:56.040Z,56.2
2018-10-07T13:01:57.631Z,56.7
2018-10-07T13:02:59.200Z,57.2
2018-10-07T13:04:00.603Z,56.7
2018-10-07T13:05:02.214Z,56.2
2018-10-07T13:06:03.661Z,57.2
2018-10-07T13:07:05.250Z,56.7
2018-10-07T13:08:06.710Z,55.7
2018-10-07T13:09:08.271Z,56.7
2018-10-07T13:10:09.831Z,56.7
2018-10-07T13:11:11.400Z,57.2
2018-10-07T13:12:13.017Z,56.2
2018-10-07T13:13:14.417Z,56.7
2018-10-07T13:14:15.808Z,55.7
2018-10-07T13:15:17.383Z,56.2
2018-10-07T13:16:18.825Z,56.2
2018-10-07T13:17:20.398Z,56.7
2018-10-07T13:18:21.794Z,56.7
2018-10-07T13:19:24.144Z,56.2
2018-10-07T13:20:25.934Z,56.7
2018-10-07T13:21:27.490Z,56.2
2018-10-07T13:22:28.724Z,56.2
2018-10-07T13:23:29.965Z,56.7
2018-10-07T13:24:31.350Z,55.7
2018-10-07T13:25:32.580Z,56.2
2018-10-07T13:26:33.999Z,56.2
2018-10-07T13:27:50.277Z,56.2
2018-10-07T13:28:51.887Z,56.2
2018-10-07T13:29:53.446Z,55.7
2018-10-07T13:30:55.000Z,56.2
2018-10-07T13:31:56.579Z,55.7
2018-10-07T13:32:58.051Z,56.2
2018-10-07T13:33:59.566Z,55.7
2018-10-07T13:35:01.210Z,56.2
2018-10-07T13:36:02.800Z,55.7
2018-10-07T13:37:04.366Z,56.2
2018-10-07T13:38:05.759Z,56.2
2018-10-07T13:39:07.568Z,56.2
2018-10-07T13:40:09.539Z,56.2
2018-10-07T13:41:11.114Z,56.2
2018-10-07T13:42:12.518Z,56.7
2018-10-07T13:43:13.901Z,57.2